Time;durP1;ratioP1;P1;durP2;ratioP2;P2;SDS_P1;SDS_P2;PMS_P1;PMS_P2;Temp;Humidity;BMP_temperature;BMP_pressure;BME280_temperature;BME280_humidity;BME280_pressure;Samples;Min_cycle;Max_cycle;Signal;HPM_P1;HPM_P2
2024/03/26 00:02:35;;;;;;;3.38;1.33;;;;;;;17.19;52.52;99685.19;10366300;28;20652;-59
2024/03/26 00:07:35;;;;;;;3.07;1.57;;;;;;;17.18;52.84;99678.25;10365725;28;20500;-57
2024/03/26 00:12:36;;;;;;;6.07;2.20;;;;;;;17.19;52.52;99674.47;10364577;28;20346;-56
2024/03/26 00:17:36;;;;;;;5.30;1.98;;;;;;;17.22;52.55;99667.69;10365347;28;20284;-55
2024/03/26 00:22:36;;;;;;;6.13;2.07;;;;;;;17.25;53.15;99659.81;10365479;28;20073;-57
2024/03/26 00:27:37;;;;;;;1.77;1.23;;;;;;;17.24;53.52;99641.38;10365025;28;20279;-56
2024/03/26 00:32:37;;;;;;;2.87;1.60;;;;;;;17.23;53.68;99632.56;10365235;28;20287;-58
2024/03/26 00:37:37;;;;;;;2.72;1.20;;;;;;;17.23;52.92;99626.41;10365089;28;20280;-58
2024/03/26 00:42:38;;;;;;;2.63;1.40;;;;;;;17.22;53.33;99628.28;10366045;28;20037;-59
2024/03/26 00:47:38;;;;;;;3.53;1.43;;;;;;;17.21;52.82;99626.72;10364742;28;20800;-57
2024/03/26 00:52:38;;;;;;;3.50;2.00;;;;;;;17.25;53.41;99618.84;10363578;28;20277;-58
2024/03/26 00:57:39;;;;;;;2.10;1.20;;;;;;;17.25;52.47;99613.47;10363168;28;20637;-59
2024/03/26 01:02:40;;;;;;;2.65;1.25;;;;;;;17.22;53.02;99603.41;10365464;28;20375;-58
2024/03/26 01:07:40;;;;;;;3.67;1.38;;;;;;;17.23;52.20;99595.03;10364491;28;20026;-58
2024/03/26 01:12:40;;;;;;;2.13;1.17;;;;;;;17.23;53.11;99580.88;10367363;28;20104;-59
2024/03/26 01:17:40;;;;;;;3.57;1.33;;;;;;;17.21;52.30;99567.00;10370928;28;20276;-57
2024/03/26 01:22:41;;;;;;;2.00;1.23;;;;;;;17.23;52.00;99564.78;10372334;28;20470;-56
2024/03/26 01:27:41;;;;;;;3.90;1.20;;;;;;;17.22;51.86;99555.97;10371730;28;20288;-58
2024/03/26 01:32:41;;;;;;;3.50;1.73;;;;;;;17.22;52.73;99542.56;10371774;28;20046;-56
2024/03/26 01:37:42;;;;;;;2.60;1.40;;;;;;;17.22;52.95;99545.25;10369884;28;20273;-56
2024/03/26 01:42:42;;;;;;;2.60;1.20;;;;;;;17.23;52.44;99536.13;10371427;28;20292;-56
2024/03/26 01:47:43;;;;;;;2.80;1.20;;;;;;;17.22;52.14;99531.06;10371074;28;20105;-57
2024/03/26 01:52:45;;;;;;;1.77;1.23;;;;;;;17.21;53.08;99522.25;10353640;28;20359;-59
2024/03/26 01:57:46;;;;;;;4.15;1.60;;;;;;;17.23;52.01;99520.03;10369093;28;20441;-56
2024/03/26 02:02:46;;;;;;;2.67;1.40;;;;;;;17.28;52.60;99512.94;10370784;28;20022;-58
2024/03/26 02:07:46;;;;;;;2.77;1.67;;;;;;;17.38;51.32;99501.91;10370057;28;20026;-58
2024/03/26 02:12:46;;;;;;;1.97;1.20;;;;;;;17.35;51.54;99497.97;10369042;28;20656;-59
2024/03/26 02:17:47;;;;;;;3.40;1.10;;;;;;;17.36;52.29;99494.19;10369913;28;20492;-58
2024/03/26 02:22:47;;;;;;;2.77;1.20;;;;;;;17.36;52.98;99474.66;10368666;28;20033;-58
2024/03/26 02:27:48;;;;;;;2.63;1.10;;;;;;;17.38;51.82;99472.44;10369174;28;20273;-58
2024/03/26 02:32:49;;;;;;;2.22;1.00;;;;;;;17.36;51.60;99466.59;10369536;28;20347;-58
2024/03/26 02:37:50;;;;;;;2.63;1.07;;;;;;;17.34;52.50;99469.59;10369115;28;20097;-58
2024/03/26 02:42:50;;;;;;;2.03;1.10;;;;;;;17.40;52.66;99471.00;10369417;28;20332;-56
2024/03/26 02:47:50;;;;;;;1.90;1.10;;;;;;;17.36;51.90;99450.53;10368715;28;20029;-56
2024/03/26 02:52:51;;;;;;;2.30;0.80;;;;;;;17.36;52.34;99445.19;10368830;28;20280;-58
2024/03/26 02:57:51;;;;;;;1.30;0.73;;;;;;;17.37;51.63;99442.16;10368242;28;20272;-57
2024/03/26 03:02:51;;;;;;;3.50;1.15;;;;;;;17.32;52.30;99431.63;10368173;28;20284;-58
2024/03/26 03:07:52;;;;;;;3.30;1.13;;;;;;;17.28;51.80;99416.50;10368152;28;20026;-57
2024/03/26 03:12:52;;;;;;;1.77;0.95;;;;;;;17.29;52.12;99413.53;10367481;28;20780;-57
2024/03/26 03:17:53;;;;;;;2.75;1.10;;;;;;;17.31;51.49;99402.47;10367476;28;20503;-58
2024/03/26 03:22:53;;;;;;;1.70;0.97;;;;;;;17.26;51.51;99392.72;10366895;28;20485;-56
2024/03/26 03:27:53;;;;;;;1.80;0.83;;;;;;;17.27;51.94;99380.88;10367078;28;20273;-57
2024/03/26 03:32:54;;;;;;;2.20;0.90;;;;;;;17.27;52.67;99372.06;10366018;28;20628;-58
2024/03/26 03:37:54;;;;;;;2.90;1.27;;;;;;;17.24;51.40;99363.56;10349285;28;20292;-59
2024/03/26 03:42:54;;;;;;;1.87;0.93;;;;;;;17.27;52.57;99354.09;10366958;28;20806;-57
2024/03/26 03:47:55;;;;;;;2.00;0.77;;;;;;;17.27;51.95;99346.06;10366283;28;20276;-56
2024/03/26 03:52:55;;;;;;;2.58;1.00;;;;;;;17.23;52.22;99340.56;10366565;28;20715;-56
2024/03/26 03:57:57;;;;;;;1.93;0.90;;;;;;;17.29;51.73;99335.06;10366383;28;20114;-57
2024/03/26 04:02:57;;;;;;;2.38;1.20;;;;;;;17.25;51.78;99329.53;10366092;28;20720;-57
2024/03/26 04:07:57;;;;;;;1.77;0.90;;;;;;;17.24;52.68;99325.28;10365736;28;20117;-57
2024/03/26 04:12:57;;;;;;;0.93;0.70;;;;;;;17.27;51.53;99319.28;10365248;28;20319;-57
2024/03/26 04:17:58;;;;;;;3.80;1.43;;;;;;;17.25;51.55;99319.59;10365276;28;20280;-57
2024/03/26 04:22:58;;;;;;;2.20;1.00;;;;;;;17.24;51.87;99314.56;10365889;28;20022;-58
2024/03/26 04:27:58;;;;;;;1.52;0.75;;;;;;;17.31;52.65;99314.88;10365150;28;20285;-58
2024/03/26 04:32:59;;;;;;;1.10;0.80;;;;;;;17.35;52.35;99307.75;10368070;28;20022;-58
2024/03/26 04:37:59;;;;;;;2.53;1.10;;;;;;;17.35;51.73;99302.38;10368076;28;20261;-57
2024/03/26 04:42:59;;;;;;;1.85;1.17;;;;;;;17.34;51.04;99295.47;10367674;28;20280;-57
2024/03/26 04:48:00;;;;;;;2.53;1.37;;;;;;;17.31;51.29;99284.59;10364969;28;20034;-58
2024/03/26 04:53:00;;;;;;;1.70;0.85;;;;;;;17.25;51.04;99282.09;10365004;28;20269;-57
2024/03/26 04:58:01;;;;;;;1.77;0.90;;;;;;;17.26;51.84;99277.53;10363504;28;20109;-57
2024/03/26 05:03:02;;;;;;;1.63;0.80;;;;;;;17.26;52.53;99274.84;10364150;28;20655;-58
2024/03/26 05:08:02;;;;;;;2.00;0.85;;;;;;;17.25;51.57;99270.59;10362945;28;20172;-59
2024/03/26 05:13:03;;;;;;;2.13;1.08;;;;;;;17.28;51.97;99269.16;10363098;28;20046;-58
2024/03/26 05:18:03;;;;;;;1.38;0.75;;;;;;;17.33;51.16;99269.00;10343627;28;20028;-57
2024/03/26 05:23:04;;;;;;;1.60;0.82;;;;;;;17.33;50.97;99272.47;10361529;28;20469;-58
2024/03/26 05:28:04;;;;;;;1.60;0.80;;;;;;;17.36;51.74;99261.09;10365839;28;20037;-58
2024/03/26 05:33:05;;;;;;;1.27;0.98;;;;;;;17.33;51.02;99267.09;10363559;28;20065;-58
2024/03/26 05:38:05;;;;;;;2.30;1.02;;;;;;;17.38;50.48;99271.47;10363667;28;20014;-59
2024/03/26 05:43:06;;;;;;;2.37;1.00;;;;;;;17.36;50.61;99268.34;10364088;28;20026;-59
2024/03/26 05:48:06;;;;;;;1.67;0.77;;;;;;;17.34;51.56;99265.22;10365884;28;20276;-57
2024/03/26 05:53:06;;;;;;;2.08;0.90;;;;;;;17.34;51.83;99266.00;10364186;28;20264;-58
2024/03/26 05:58:07;;;;;;;2.57;1.03;;;;;;;17.37;51.22;99259.19;10369786;28;20022;-58
2024/03/26 06:03:07;;;;;;;2.77;0.90;;;;;;;17.32;51.15;99257.50;10372574;28;20618;-57
2024/03/26 06:08:07;;;;;;;3.40;1.20;;;;;;;17.29;52.75;99249.31;10373030;28;20295;-59
2024/03/26 06:13:08;;;;;;;7.93;1.40;;;;;;;17.25;52.27;99247.28;10372103;28;20289;-58
2024/03/26 06:18:08;;;;;;;5.57;1.60;;;;;;;17.31;53.58;99239.84;10371134;28;20277;-59
2024/03/26 06:23:08;;;;;;;7.30;1.10;;;;;;;17.34;53.20;99235.75;10371340;28;20284;-58
2024/03/26 06:28:09;;;;;;;3.70;1.73;;;;;;;17.59;53.61;99236.72;10371780;28;20331;-58
2024/03/26 06:33:11;;;;;;;4.90;1.90;;;;;;;17.47;52.56;99232.81;10371306;28;20281;-57
2024/03/26 06:38:12;;;;;;;8.15;1.55;;;;;;;17.41;52.47;99226.09;10386867;28;20797;-58
2024/03/26 06:43:12;;;;;;;35.65;4.80;;;;;;;17.19;54.32;99215.66;10370427;28;20125;-59
2024/03/26 06:48:13;;;;;;;21.07;3.07;;;;;;;17.21;53.66;99219.56;10370375;28;20109;-58
2024/03/26 06:53:13;;;;;;;48.87;5.43;;;;;;;17.11;55.28;99225.28;10369674;28;20283;-60
2024/03/26 06:58:13;;;;;;;32.57;4.90;;;;;;;17.08;54.56;99223.25;10369780;28;20284;-59
2024/03/26 07:03:14;;;;;;;25.87;3.97;;;;;;;17.08;54.86;99235.84;10370013;28;20359;-59
2024/03/26 07:08:14;;;;;;;13.03;2.63;;;;;;;17.09;54.77;99224.81;10370555;28;20306;-59
2024/03/26 07:13:14;;;;;;;27.70;4.72;;;;;;;17.05;54.34;99215.88;10369426;28;20300;-58
2024/03/26 07:18:15;;;;;;;27.23;3.80;;;;;;;17.05;52.94;99220.41;10370654;28;20026;-58
2024/03/26 07:23:15;;;;;;;25.73;3.65;;;;;;;17.02;54.54;99213.03;10368918;28;20033;-58
2024/03/26 07:28:15;;;;;;;21.63;3.63;;;;;;;16.96;54.17;99215.09;10369732;28;20064;-59
2024/03/26 07:33:16;;;;;;;22.67;4.93;;;;;;;16.99;53.93;99209.09;10367208;28;20284;-58
2024/03/26 07:38:16;;;;;;;12.77;4.67;;;;;;;16.98;53.91;99204.84;10364684;28;20284;-57
2024/03/26 07:43:17;;;;;;;8.75;2.78;;;;;;;16.96;53.01;99193.69;10367556;28;20404;-58
2024/03/26 07:48:18;;;;;;;12.63;3.40;;;;;;;16.95;53.48;99198.25;10369630;28;20032;-59
2024/03/26 07:53:18;;;;;;;12.00;3.30;;;;;;;16.94;52.70;99193.22;10367632;28;20283;-57
2024/03/26 07:58:19;;;;;;;11.53;2.57;;;;;;;17.00;53.15;99180.44;10368013;28;20030;-58
2024/03/26 08:03:19;;;;;;;15.90;2.43;;;;;;;16.96;53.99;99174.94;10366628;28;20288;-58
2024/03/26 08:08:19;;;;;;;10.47;2.33;;;;;;;16.98;53.48;99171.94;10367881;28;20284;-55
2024/03/26 08:13:20;;;;;;;8.73;2.13;;;;;;;16.99;53.93;99166.25;10365328;28;20295;-57
2024/03/26 08:18:20;;;;;;;9.53;2.67;;;;;;;16.94;53.64;99161.88;10366542;28;20296;-57
2024/03/26 08:23:20;;;;;;;9.40;1.97;;;;;;;16.96;53.56;99156.19;10366666;28;20780;-57
2024/03/26 08:28:21;;;;;;;7.43;1.97;;;;;;;16.97;53.14;99146.28;10366488;28;20268;-57
2024/03/26 08:33:21;;;;;;;5.17;1.67;;;;;;;16.98;53.70;99137.13;10366061;28;20265;-57
2024/03/26 08:38:22;;;;;;;6.45;1.63;;;;;;;16.99;54.13;99141.38;10366085;28;20342;-57
2024/03/26 08:43:22;;;;;;;6.63;2.03;;;;;;;16.92;53.92;99131.16;10366661;28;20684;-58
2024/03/26 08:48:22;;;;;;;5.10;1.48;;;;;;;16.90;53.56;99123.47;10367006;28;20316;-55
2024/03/26 08:53:23;;;;;;;3.80;1.60;;;;;;;16.90;53.44;99118.09;10366611;28;20022;-56
2024/03/26 08:58:23;;;;;;;4.93;2.00;;;;;;;16.88;53.84;99114.19;10366501;28;20331;-57
2024/03/26 09:03:23;;;;;;;3.92;1.55;;;;;;;16.87;53.23;99112.63;10363104;28;20334;-55
2024/03/26 09:08:23;;;;;;;5.17;1.73;;;;;;;16.91;53.19;99102.81;10366218;28;20026;-57
2024/03/26 09:13:24;;;;;;;3.67;1.20;;;;;;;16.90;52.75;99091.34;10366111;28;20292;-57
2024/03/26 09:18:24;;;;;;;6.53;1.73;;;;;;;16.88;53.95;99092.78;10365734;28;20273;-58
2024/03/26 09:23:24;;;;;;;4.40;1.60;;;;;;;16.89;53.62;99099.69;10365637;28;20419;-57
2024/03/26 09:28:25;;;;;;;5.87;1.80;;;;;;;16.85;53.34;99088.84;10365584;28;20780;-57
2024/03/26 09:33:25;;;;;;;3.20;1.30;;;;;;;16.90;53.42;99082.50;10370892;28;20363;-56
2024/03/26 09:38:25;;;;;;;3.47;1.10;;;;;;;16.88;53.20;99093.56;10374020;28;20684;-57
2024/03/26 09:43:27;;;;;;;4.63;1.50;;;;;;;16.94;53.87;99088.81;10372478;28;20105;-57
2024/03/26 09:48:28;;;;;;;2.50;1.23;;;;;;;16.93;53.88;99082.69;10371467;28;20617;-55
2024/03/26 09:53:28;;;;;;;3.22;1.05;;;;;;;16.85;54.12;99078.16;10371120;28;20040;-55
2024/03/26 09:58:29;;;;;;;3.53;1.00;;;;;;;16.97;54.48;99068.63;10371885;28;20144;-56
2024/03/26 10:03:32;;;;;;;5.40;2.03;;;;;;;17.01;52.95;99061.50;10371134;28;20025;-57
2024/03/26 10:08:32;;;;;;;4.70;1.50;;;;;;;17.03;53.33;99057.41;10372532;28;20284;-57
2024/03/26 10:13:33;;;;;;;3.93;1.20;;;;;;;16.98;53.93;99043.44;10371432;28;20050;-57
2024/03/26 10:18:34;;;;;;;2.08;1.23;;;;;;;16.96;53.23;99051.78;10372106;28;20602;-56
2024/03/26 10:23:34;;;;;;;2.20;1.23;;;;;;;16.93;53.19;99047.88;10371432;28;20073;-56
2024/03/26 10:28:35;;;;;;;8.07;2.47;;;;;;;17.02;52.57;99044.34;10371378;28;20574;-56
2024/03/26 10:33:35;;;;;;;2.25;1.20;;;;;;;17.02;53.31;99028.28;10371308;28;20029;-57
2024/03/26 10:38:36;;;;;;;5.07;1.63;;;;;;;17.03;52.92;99032.50;10369963;28;20381;-57
2024/03/26 10:43:38;;;;;;;3.42;1.20;;;;;;;16.99;53.53;99021.69;10368488;28;20064;-58
2024/03/26 10:48:38;;;;;;;2.65;1.30;;;;;;;16.94;52.67;99020.00;10353339;28;20067;-56
2024/03/26 10:53:39;;;;;;;4.38;1.02;;;;;;;16.93;52.84;99009.59;10369612;28;20026;-56
2024/03/26 10:58:39;;;;;;;3.20;1.20;;;;;;;16.94;53.05;99011.16;10369769;28;20516;-58
2024/03/26 11:03:40;;;;;;;2.63;1.50;;;;;;;16.89;53.34;99004.09;10368916;28;20034;-56
2024/03/26 11:08:40;;;;;;;3.53;0.88;;;;;;;16.86;54.43;98993.28;10369184;28;20280;-56
2024/03/26 11:13:41;;;;;;;3.70;1.37;;;;;;;16.92;53.92;98990.06;10369059;28;20173;-57
2024/03/26 11:18:43;;;;;;;2.35;1.10;;;;;;;16.92;52.65;98987.38;10370033;28;20284;-55
2024/03/26 11:23:44;;;;;;;2.15;1.23;;;;;;;16.93;53.20;98985.50;10369324;28;20037;-57
2024/03/26 11:28:45;;;;;;;1.80;1.17;;;;;;;16.97;52.53;98974.94;10369078;28;20045;-57
2024/03/26 11:33:52;;;;;;;2.70;1.17;;;;;;;16.91;53.09;98958.25;10368719;28;20025;-55
2024/03/26 11:38:52;;;;;;;2.33;1.38;;;;;;;16.89;52.99;98955.91;10369168;28;20079;-58
2024/03/26 11:43:53;;;;;;;2.15;0.93;;;;;;;16.85;54.11;98949.66;10368478;28;20034;-58
2024/03/26 11:49:00;;;;;;;3.50;0.70;;;;;;;16.84;53.87;98939.28;10367556;28;20025;-57
2024/03/26 11:54:01;;;;;;;2.53;1.20;;;;;;;16.83;54.26;98945.75;10366643;28;20028;-58
2024/03/26 11:59:02;;;;;;;2.08;0.95;;;;;;;16.83;55.35;98935.03;10368521;28;20033;-57
2024/03/26 12:04:02;;;;;;;2.35;1.00;;;;;;;16.79;54.06;98937.56;10365811;28;20034;-58
2024/03/26 12:09:04;;;;;;;2.10;1.02;;;;;;;16.81;53.69;98935.38;10365706;28;20037;-59
2024/03/26 12:14:04;;;;;;;3.50;1.15;;;;;;;16.85;55.09;98925.56;10367532;28;20478;-58
2024/03/26 12:19:05;;;;;;;5.07;1.23;;;;;;;16.91;54.22;98918.09;10365708;28;20104;-57
2024/03/26 12:24:05;;;;;;;2.00;0.90;;;;;;;16.81;53.99;98919.31;10366129;28;20030;-57
2024/03/26 12:29:07;;;;;;;3.78;1.35;;;;;;;16.76;54.57;98908.78;10367810;28;20788;-57
2024/03/26 12:34:13;;;;;;;2.40;1.10;;;;;;;16.76;54.13;98899.97;10366257;28;20025;-57
2024/03/26 12:39:14;;;;;;;2.30;1.00;;;;;;;16.70;55.33;98895.94;10367378;28;20485;-56
2024/03/26 12:44:15;;;;;;;3.42;1.25;;;;;;;16.71;54.96;98894.81;10365373;28;20026;-54
2024/03/26 12:49:18;;;;;;;2.88;1.08;;;;;;;16.70;56.10;98885.22;10366306;28;20096;-57
2024/03/26 12:54:18;;;;;;;1.75;0.90;;;;;;;16.71;56.07;98886.78;10367026;28;20033;-55
2024/03/26 12:59:19;;;;;;;2.38;1.25;;;;;;;16.70;54.76;98874.53;10365726;28;20053;-58
2024/03/26 13:04:19;;;;;;;2.55;1.20;;;;;;;16.67;55.77;98871.38;10366577;28;20022;-58
2024/03/26 13:09:19;;;;;;;3.20;1.20;;;;;;;16.66;55.17;98875.13;10372819;28;20117;-57
2024/03/26 13:14:19;;;;;;;3.40;1.10;;;;;;;16.65;55.84;98868.22;10374449;28;20297;-56
2024/03/26 13:19:20;;;;;;;4.60;1.30;;;;;;;16.63;55.84;98858.97;10372591;28;20287;-57
2024/03/26 13:24:20;;;;;;;4.13;1.20;;;;;;;16.64;55.85;98845.25;10374049;28;20385;-58
2024/03/26 13:29:20;;;;;;;7.90;1.60;;;;;;;16.66;55.68;98853.72;10373765;28;20084;-60
2024/03/26 13:34:21;;;;;;;3.57;1.20;;;;;;;16.67;54.55;98846.47;10372844;28;20600;-59
2024/03/26 13:39:22;;;;;;;10.40;1.90;;;;;;;16.73;56.27;98844.44;10371208;28;20285;-58
2024/03/26 13:44:22;;;;;;;24.02;2.55;;;;;;;16.78;56.91;98836.97;10370857;28;20068;-61
2024/03/26 13:49:22;;;;;;;12.93;2.23;;;;;;;16.78;56.92;98845.00;10369875;28;20477;-58
2024/03/26 13:54:22;;;;;;;12.00;2.53;;;;;;;16.76;56.04;98831.16;10373066;28;20287;-58
2024/03/26 13:59:23;;;;;;;16.93;4.23;;;;;;;16.74;56.62;98827.25;10372404;28;20610;-57
2024/03/26 14:04:23;;;;;;;22.47;3.50;;;;;;;16.72;55.69;98830.28;10371605;28;20508;-58
2024/03/26 14:09:23;;;;;;;15.10;2.90;;;;;;;16.72;55.83;98824.91;10372144;28;20276;-58
2024/03/26 14:14:24;;;;;;;17.90;2.80;;;;;;;16.80;56.73;98805.31;10372514;28;20296;-57
2024/03/26 14:19:27;;;;;;;20.60;3.15;;;;;;;16.89;56.76;98807.91;10370846;28;20660;-55
2024/03/26 14:24:27;;;;;;;18.70;3.42;;;;;;;16.94;56.29;98797.78;10369507;28;20058;-55
2024/03/26 14:29:28;;;;;;;16.77;2.43;;;;;;;17.01;56.11;98793.75;10369783;28;20057;-56
2024/03/26 14:34:28;;;;;;;10.35;2.63;;;;;;;16.94;55.90;98786.28;10371495;28;20281;-54
2024/03/26 14:39:29;;;;;;;21.42;2.72;;;;;;;16.87;56.93;98773.44;10371488;28;20108;-57
2024/03/26 14:44:29;;;;;;;12.57;3.63;;;;;;;16.82;56.38;98760.28;10371504;28;20096;-56
2024/03/26 14:49:29;;;;;;;6.20;2.63;;;;;;;16.80;55.56;98756.34;10370635;28;20322;-57
2024/03/26 14:54:30;;;;;;;8.83;3.13;;;;;;;16.80;55.88;98751.78;10370715;28;20049;-57
2024/03/26 14:59:32;;;;;;;10.53;2.03;;;;;;;16.81;56.31;98742.66;10370368;28;20280;-55
2024/03/26 15:04:32;;;;;;;5.95;2.00;;;;;;;16.77;56.29;98751.66;10370316;28;20318;-55
2024/03/26 15:09:33;;;;;;;7.03;2.20;;;;;;;16.79;56.66;98739.50;10369250;28;20484;-56
2024/03/26 15:14:35;;;;;;;12.68;2.72;;;;;;;16.78;55.23;98729.91;10369094;28;20050;-55
2024/03/26 15:19:35;;;;;;;20.38;3.70;;;;;;;16.94;56.31;98722.81;10370123;28;20030;-58
2024/03/26 15:24:36;;;;;;;19.20;5.70;;;;;;;16.98;56.65;98722.16;10369640;28;20022;-59
2024/03/26 15:34:55;;;;;;;29.73;5.68;;;;;;;17.08;56.75;98702.97;10369365;28;20257;-58
2024/03/26 15:39:55;;;;;;;28.07;5.70;;;;;;;17.10;56.63;98700.75;10367717;28;20399;-59
2024/03/26 15:44:56;;;;;;;18.00;5.80;;;;;;;17.10;55.87;98704.19;10368164;28;20300;-59
2024/03/26 15:49:56;;;;;;;20.50;5.30;;;;;;;17.12;57.87;98699.28;10367693;28;20034;-59
2024/03/26 15:54:56;;;;;;;47.23;7.83;;;;;;;17.03;57.10;98692.47;10368425;28;20273;-58
2024/03/26 15:59:57;;;;;;;34.83;6.77;;;;;;;17.08;56.25;98666.28;10367743;28;20291;-59
2024/03/26 16:04:57;;;;;;;26.30;6.47;;;;;;;17.10;55.60;98665.94;10368124;28;20292;-57
2024/03/26 16:09:57;;;;;;;20.07;4.93;;;;;;;17.08;56.94;98658.25;10366685;28;20277;-57
2024/03/26 16:14:58;;;;;;;14.50;4.70;;;;;;;17.06;56.32;98654.34;10366328;28;20300;-59
2024/03/26 16:19:59;;;;;;;17.15;4.75;;;;;;;17.03;55.73;98644.28;10366909;28;20280;-58
2024/03/26 16:24:59;;;;;;;20.50;4.88;;;;;;;17.00;55.56;98640.38;10367608;28;20037;-58
2024/03/26 16:30:00;;;;;;;13.20;5.53;;;;;;;16.99;55.47;98630.00;10367033;28;20056;-58
2024/03/26 16:35:00;;;;;;;13.27;4.87;;;;;;;16.97;56.06;98630.34;10367162;28;20285;-57
2024/03/26 16:40:00;;;;;;;22.53;4.70;;;;;;;16.94;56.67;98625.66;10366440;28;20277;-57
2024/03/26 16:45:01;;;;;;;8.63;3.77;;;;;;;16.94;56.34;98625.66;10366997;28;20384;-58
2024/03/26 16:50:01;;;;;;;20.97;4.10;;;;;;;16.90;55.89;98633.56;10365416;28;20373;-57
2024/03/26 16:55:02;;;;;;;12.90;3.85;;;;;;;16.90;55.88;98624.75;10367670;28;20814;-57
2024/03/26 17:00:06;;;;;;;8.82;3.30;;;;;;;16.95;56.53;98616.53;10366327;28;20034;-58
2024/03/26 17:05:09;;;;;;;13.32;3.42;;;;;;;16.92;55.12;98617.94;10366548;28;20116;-57
2024/03/26 17:10:10;;;;;;;8.43;2.92;;;;;;;16.92;55.68;98627.88;10366602;28;20022;-56
2024/03/26 17:15:10;;;;;;;12.10;3.60;;;;;;;16.87;55.81;98612.06;10365573;28;20050;-58
2024/03/26 17:20:11;;;;;;;16.25;3.88;;;;;;;17.05;57.49;98605.38;10365375;28;20025;-58
2024/03/26 17:25:11;;;;;;;10.50;3.78;;;;;;;17.17;56.27;98600.00;10365825;28;20116;-60
2024/03/26 17:30:13;;;;;;;11.03;3.23;;;;;;;17.23;57.17;98606.66;10364401;28;20454;-58
2024/03/26 17:35:15;;;;;;;12.55;3.97;;;;;;;17.24;57.23;98607.44;10365216;28;20276;-57
2024/03/26 17:40:16;;;;;;;10.82;4.03;;;;;;;17.10;56.65;98596.31;10364739;28;20049;-60
2024/03/26 17:45:17;;;;;;;11.93;3.53;;;;;;;17.15;57.47;98596.06;10364779;28;20108;-59
2024/03/26 17:50:17;;;;;;;11.27;3.95;;;;;;;17.08;57.38;98588.63;10364654;28;20028;-59
2024/03/26 17:55:19;;;;;;;18.52;4.22;;;;;;;17.04;56.78;98589.63;10370857;28;20033;-58
2024/03/26 18:00:20;;;;;;;14.02;3.42;;;;;;;16.94;57.14;98596.22;10350061;28;20486;-60
2024/03/26 18:05:20;;;;;;;22.13;4.13;;;;;;;16.93;58.17;98590.09;10371770;28;20044;-59
2024/03/26 18:10:20;;;;;;;12.47;3.60;;;;;;;16.96;57.18;98583.28;10357234;28;20056;-61
2024/03/26 18:15:21;;;;;;;11.90;3.93;;;;;;;16.95;56.86;98576.38;10372538;28;20299;-60
2024/03/26 18:20:21;;;;;;;10.20;3.27;;;;;;;16.95;56.60;98585.19;10371674;28;20297;-60
2024/03/26 18:25:21;;;;;;;14.23;4.00;;;;;;;16.98;56.83;98588.28;10368030;28;20281;-60
2024/03/26 18:30:21;;;;;;;10.83;3.43;;;;;;;16.96;56.44;98599.34;10369643;28;20285;-60
2024/03/26 18:35:22;;;;;;;11.00;3.03;;;;;;;16.95;56.81;98589.75;10370658;28;20287;-60
2024/03/26 18:40:22;;;;;;;9.30;2.58;;;;;;;16.94;55.79;98590.88;10370287;28;20294;-60
2024/03/26 18:45:23;;;;;;;15.47;4.40;;;;;;;17.00;56.16;98589.50;10370452;28;20033;-60
2024/03/26 18:50:23;;;;;;;8.50;2.20;;;;;;;17.02;55.83;98581.91;10386500;28;20284;-60
2024/03/26 18:55:23;;;;;;;9.33;2.53;;;;;;;17.02;56.70;98586.50;10370610;28;20362;-60
2024/03/26 19:00:24;;;;;;;7.30;2.43;;;;;;;17.06;55.58;98574.78;10351229;28;20288;-61
2024/03/26 19:05:25;;;;;;;7.57;2.42;;;;;;;17.11;55.29;98563.84;10369784;28;20309;-61
2024/03/26 19:10:25;;;;;;;7.55;2.28;;;;;;;17.19;56.17;98559.50;10369985;28;20499;-60
2024/03/26 19:15:25;;;;;;;6.87;2.60;;;;;;;17.21;55.36;98554.56;10370041;28;20469;-60
2024/03/26 19:20:27;;;;;;;9.27;2.37;;;;;;;17.18;55.96;98550.69;10369952;28;20281;-60
2024/03/26 19:25:27;;;;;;;7.80;2.40;;;;;;;17.22;55.43;98564.16;10369773;28;20041;-59
2024/03/26 19:30:28;;;;;;;10.10;2.50;;;;;;;17.24;54.70;98560.03;10368107;28;20041;-60
2024/03/26 19:35:28;;;;;;;6.83;2.00;;;;;;;17.23;55.63;98563.03;10369768;28;20045;-60
2024/03/26 19:40:28;;;;;;;4.60;1.80;;;;;;;17.22;55.78;98556.13;10369040;28;20276;-60
2024/03/26 19:45:29;;;;;;;7.23;2.50;;;;;;;17.18;55.70;98552.56;10369326;28;20277;-60
2024/03/26 19:50:29;;;;;;;5.00;2.10;;;;;;;17.21;55.59;98546.53;10367647;28;20304;-60
2024/03/26 19:55:29;;;;;;;8.13;2.17;;;;;;;17.23;56.06;98541.63;10369030;28;20354;-61
2024/03/26 20:00:29;;;;;;;5.57;2.00;;;;;;;17.23;56.20;98538.94;10367180;28;20335;-61
2024/03/26 20:05:30;;;;;;;5.03;2.27;;;;;;;17.18;55.12;98531.94;10367067;28;20299;-60
2024/03/26 20:10:37;;;;;;;5.50;2.50;;;;;;;17.19;56.13;98530.03;10366819;28;20772;-61
2024/03/26 20:15:41;;;;;;;11.40;5.95;;;;;;;17.21;55.82;98525.09;10367889;28;20301;-60
2024/03/26 20:20:42;;;;;;;5.93;2.38;;;;;;;17.33;55.37;98524.28;10366582;28;20022;-59
2024/03/26 20:25:43;;;;;;;3.75;2.28;;;;;;;17.30;56.41;98522.31;10368103;28;20028;-58
2024/03/26 20:30:44;;;;;;;3.03;1.97;;;;;;;17.30;55.17;98516.94;10366824;28;20029;-60
2024/03/26 20:35:45;;;;;;;6.15;2.28;;;;;;;17.25;56.30;98523.31;10366293;28;20356;-60
2024/03/26 20:40:45;;;;;;;4.45;2.30;;;;;;;17.23;55.76;98525.53;10365818;28;20113;-59
2024/03/26 20:45:52;;;;;;;7.77;2.87;;;;;;;17.28;56.58;98527.97;10367448;28;20034;-59
2024/03/26 20:50:52;;;;;;;5.50;2.30;;;;;;;17.25;55.81;98521.41;10365846;28;20269;-59
2024/03/26 20:55:57;;;;;;;5.07;2.17;;;;;;;17.21;56.43;98523.22;10365701;28;20037;-60
2024/03/26 21:00:58;;;;;;;4.13;2.30;;;;;;;17.19;55.74;98522.78;10364632;28;20557;-59
2024/03/26 21:06:00;;;;;;;3.97;2.63;;;;;;;17.23;55.83;98520.97;10337052;28;20031;-60
2024/03/26 21:11:08;;;;;;;4.60;2.20;;;;;;;17.22;55.50;98508.69;10365073;28;20319;-60
2024/03/26 21:16:11;;;;;;;5.45;2.72;;;;;;;17.21;55.39;98504.47;10365427;28;20037;-59
2024/03/26 21:21:11;;;;;;;4.25;2.20;;;;;;;17.23;55.96;98496.09;10365839;28;20081;-59
2024/03/26 21:26:12;;;;;;;5.38;1.88;;;;;;;17.32;54.51;98501.31;10367547;28;20629;-60
2024/03/26 21:31:13;;;;;;;5.55;2.35;;;;;;;17.32;54.86;98498.63;10373687;28;20113;-60
2024/03/26 21:36:13;;;;;;;5.33;2.10;;;;;;;17.30;55.63;98490.94;10374903;28;20026;-59
2024/03/26 21:41:14;;;;;;;4.40;2.17;;;;;;;17.26;56.36;98487.38;10374167;28;20285;-59
2024/03/26 21:46:15;;;;;;;3.67;1.80;;;;;;;17.25;55.89;98477.78;10374726;28;20280;-60
2024/03/26 21:51:18;;;;;;;3.90;2.17;;;;;;;17.29;55.60;98477.91;10372669;28;20030;-59
2024/03/26 21:56:18;;;;;;;3.80;2.00;;;;;;;17.32;55.32;98463.81;10374270;28;20403;-59
2024/03/26 22:01:19;;;;;;;3.72;2.15;;;;;;;17.34;54.87;98461.56;10373928;28;20124;-59
2024/03/26 22:06:19;;;;;;;2.10;1.60;;;;;;;17.36;55.08;98460.09;10372194;28;20680;-59
2024/03/26 22:11:19;;;;;;;4.97;2.25;;;;;;;17.36;54.48;98460.09;10372243;28;20354;-59
2024/03/26 22:16:20;;;;;;;2.83;1.85;;;;;;;17.34;55.78;98456.22;10373082;28;20029;-59
2024/03/26 22:21:20;;;;;;;3.97;1.60;;;;;;;17.37;54.90;98453.63;10373200;28;20037;-59
2024/03/26 22:26:20;;;;;;;2.72;1.63;;;;;;;17.34;55.32;98437.47;10371501;28;20057;-59
2024/03/26 22:31:21;;;;;;;6.18;1.98;;;;;;;17.31;54.46;98432.78;10372934;28;20097;-59
2024/03/26 22:36:21;;;;;;;2.88;1.52;;;;;;;17.30;54.29;98432.00;10372500;28;20022;-59
2024/03/26 22:41:21;;;;;;;2.25;1.60;;;;;;;17.33;55.46;98439.34;10371153;28;20030;-59
2024/03/26 22:46:22;;;;;;;2.75;1.70;;;;;;;17.35;54.19;98433.66;10371862;28;20034;-59
2024/03/26 22:51:22;;;;;;;2.92;1.60;;;;;;;17.38;55.56;98441.78;10372172;28;20113;-59
2024/03/26 22:56:23;;;;;;;3.28;1.95;;;;;;;17.34;54.41;98434.78;10371489;28;20056;-59
2024/03/26 23:01:23;;;;;;;2.75;2.05;;;;;;;17.31;54.57;98436.25;10353972;28;20497;-59
2024/03/26 23:06:23;;;;;;;2.35;1.30;;;;;;;17.32;54.13;98431.66;10371186;28;20044;-59
2024/03/26 23:11:26;;;;;;;2.85;1.30;;;;;;;17.33;54.88;98422.50;10369665;28;20089;-59
2024/03/26 23:16:27;;;;;;;4.30;1.85;;;;;;;17.30;54.39;98417.84;10370715;28;20568;-59
2024/03/26 23:21:27;;;;;;;3.30;1.35;;;;;;;17.31;55.34;98414.81;10368854;28;20034;-59